PMDY METAR and TAF weather

Enter ICAO airport designator
Station Type Date Time Source
PMDY METAR 2020/01/26 18:56 UTC NOAA

PMDY 261856Z AUTO 27007KT 10SM OVC035 19/14 A3005 RMK AO2 SLP174 P0001 T01890144


Station Type Date Time Source
PMDY Decoded METAR 2020/01/26 18:56 UTC NOAA

Sand Island, Henderson Field Airport, HI, United States (PMDY) 28-13N 177-22W 6M
Jan 26, 2020 - 01:56 PM EST / 2020.01.26 1856 UTC
Wind: from the W (270 degrees) at 8 MPH (7 KT):0
Visibility: 10 mile(s):0
Sky conditions: overcast
Precipitation last hour: 0.01 inches
Temperature: 66.0 F (18.9 C)
Dew Point: 57.9 F (14.4 C)
Relative Humidity: 75%
Pressure (altimeter): 30.05 in. Hg (1017 hPa)
ob: PMDY 261856Z AUTO 27007KT 10SM OVC035 19/14 A3005 RMK AO2 SLP174 P0001 T01890144
cycle: 19

Station Type Date Time Source
PMDY TAF 2020/01/26 18:22 UTC NOAA

TAF PMDY 261720Z 2618/2718 28008KT P6SM BKN025 BKN050
FM270000 24012KT P6SM BKN025 BKN050
FM270600 25020G25KT P6SM BKN025 BKN050

Example: see airport list